Mendota, MN (55150)

10:57 AM CDT on May 27, 2015 (GMT -0500)
Highview Park Area | | Change Station
CLOSE
Current Station
Personal Weather Station
Location: Eagan, MN
Elevation: 906 ft
Nearby Weather Stations

Elev 906 ft 44.85 °N, 93.17 °W | Updated 2 minutes ago

Partly Cloudy
Partly Cloudy
73.6 °F
Feels Like 77 °F
N
2.2
Wind Variable Wind from WSW
Gusts 6.9 mph

Today
High -- | Low -- °F
--% Chance of Precip.
Yesterday
High -- | Low -- °F
Precip. -- in
5:32 AM 8:47 PM
Waxing Gibbous, 68% visible
Pressure 29.92 in
Visibility 10.0 miles
Clouds Scattered Clouds 25000 ft
Heat Index 77 °F
Dew Point 57 °F
Humidity 56%
Rainfall 0.00 in
Snow Depth Not available.
UV 5 out of 12
Pollen 7.90 out of 12
Air Quality Not available.
Flu Activity Sporadic
METAR KMSP 271453Z 21007KT 10SM SCT250 20/14 A2992 RMK AO2 SLP132 T02000139 50007

More Conditions Fewer Conditions

Pressure 29.92 in
Visibility 10.0 miles
Clouds Scattered Clouds 25000 ft
Heat Index 77 °F
Dew Point 57 °F
Humidity 56%
Rainfall 0.00 in
Snow Depth Not available.
UV 5 out of 12
Pollen 7.90 out of 12
Air Quality Not available.
Flu Activity Sporadic
METAR KMSP 271453Z 21007KT 10SM SCT250 20/14 A2992 RMK AO2 SLP132 T02000139 50007

More Conditions Fewer Conditions

10-Day Weather Forecast

Almanac

Astronomy

May. 27, 2015 Rise Set
Actual Time
Civil Twilight
Nautical Twilight
Astronomical Twilight
Moon
Length of Visible Light
Length of Day
Tomorrow will be .
, % of the Moon is Illuminated

Today's Extremes

State Highs State Lows

Community

WunderPhotos

Upload Photos

1,824,699 photos uploaded!

WunderBlogs® & News

Nearby

Air Quality

  Air Quality AQ Index Pollutant
Not available.

Snow Depth

Station Depth Elevation

Earthquake Activity

City Distance Mag. Time & Date
Minimum magnitude displayed is 2.5.

Coastal Water Temperatures

Place Temperature

Stations

Nearby Weather Stations

Station Location Temp. Windchill Dew Point Humidity Wind Precip. Elev Updated Type